Observation data for Saint Lawrence on 10/18/2019      Previous  Date       Current Mesonet Observations  Soil Data  Daily Summary Page  Observations in Plain Language
KST1 180500Z 18012G17KT 18/09 A299 RMK A01 T01800094  RH  058%=      5-min Rain = 0
KST1 180505Z 18012KT 18/09 A299 RMK A01 T01790093  RH  058%=      5-min Rain = 0
KST1 180510Z 17012KT 18/09 A299 RMK A01 T01780093  RH  058%=      5-min Rain = 0
KST1 180515Z 17012KT 18/09 A299 RMK A01 T01780093  RH  058%=      5-min Rain = 0
KST1 180520Z 18011KT 18/09 A299 RMK A01 T01770093  RH  059%=      5-min Rain = 0
KST1 180525Z 18010KT 18/09 A299 RMK A01 T01760092  RH  059%=      5-min Rain = 0
KST1 180530Z 18010KT 18/09 A299 RMK A01 T01750092  RH  059%=      5-min Rain = 0
KST1 180535Z 18010KT 17/09 A299 RMK A01 T01740092  RH  059%=      5-min Rain = 0
KST1 180540Z 18011KT 17/09 A2989 RMK A01 T01730092  RH  060%=      5-min Rain = 0
KST1 180545Z 18011KT 17/09 A2989 RMK A01 T01730092  RH  060%=      5-min Rain = 0
KST1 180550Z 18012KT 17/09 A2989 RMK A01 T01720092  RH  060%=      5-min Rain = 0
KST1 180555Z 18011KT 17/09 A2989 RMK A01 T01710092  RH  061%=      5-min Rain = 0
KST1 180600Z 18011KT 17/09 A2989 RMK A01 T01710092  RH  061%=      5-min Rain = 0
KST1 180605Z 18011KT 17/09 A2989 RMK A01 T01700092  RH  061%=      5-min Rain = 0
KST1 180610Z 18010KT 17/09 A2989 RMK A01 T01690092  RH  062%=      5-min Rain = 0
KST1 180615Z 18010KT 17/09 A2989 RMK A01 T01680092  RH  062%=      5-min Rain = 0
KST1 180620Z 18010KT 17/09 A2989 RMK A01 T01670092  RH  062%=      5-min Rain = 0
KST1 180625Z 18011KT 17/09 A2989 RMK A01 T01660092  RH  062%=      5-min Rain = 0
KST1 180630Z 18010KT 17/09 A2988 RMK A01 T01650092  RH  063%=      5-min Rain = 0
KST1 180635Z 18010KT 16/09 A2988 RMK A01 T01640091  RH  063%=      5-min Rain = 0
KST1 180640Z 17010KT 16/09 A2988 RMK A01 T01630091  RH  063%=      5-min Rain = 0
KST1 180645Z 17011KT 16/09 A2988 RMK A01 T01620091  RH  064%=      5-min Rain = 0
KST1 180650Z 17011KT 16/09 A2988 RMK A01 T01630091  RH  063%=      5-min Rain = 0
KST1 180655Z 18011KT 16/09 A2988 RMK A01 T01630091  RH  063%=      5-min Rain = 0
KST1 180700Z 18011KT 16/09 A2988 RMK A01 T01620090  RH  063%=      5-min Rain = 0
KST1 180705Z 17011KT 16/09 A2988 RMK A01 T01610090  RH  063%=      5-min Rain = 0
KST1 180710Z 17011KT 16/09 A2988 RMK A01 T01610089  RH  064%=      5-min Rain = 0
KST1 180715Z 17010KT 16/09 A2988 RMK A01 T01600089  RH  063%=      5-min Rain = 0
KST1 180720Z 17010KT 16/09 A2988 RMK A01 T01590088  RH  064%=      5-min Rain = 0
KST1 180725Z 17009KT 16/09 A2988 RMK A01 T01580087  RH  064%=      5-min Rain = 0
KST1 180730Z 17009KT 16/09 A2988 RMK A01 T01570087  RH  064%=      5-min Rain = 0
KST1 180735Z 17009KT 16/09 A2988 RMK A01 T01560086  RH  064%=      5-min Rain = 0
KST1 180740Z 17009KT 16/09 A2988 RMK A01 T01550085  RH  064%=      5-min Rain = 0
KST1 180745Z 17009KT 15/09 A2988 RMK A01 T01530085  RH  065%=      5-min Rain = 0
KST1 180750Z 17008KT 15/08 A2988 RMK A01 T01510084  RH  065%=      5-min Rain = 0
KST1 180755Z 16008KT 15/08 A2988 RMK A01 T01500083  RH  066%=      5-min Rain = 0
KST1 180800Z 16008KT 15/08 A2988 RMK A01 T01480083  RH  066%=      5-min Rain = 0
KST1 180805Z 16008KT 15/08 A2988 RMK A01 T01450082  RH  067%=      5-min Rain = 0
KST1 180810Z 17008KT 14/08 A2988 RMK A01 T01430082  RH  068%=      5-min Rain = 0
KST1 180815Z 17008KT 14/08 A2988 RMK A01 T01440082  RH  067%=      5-min Rain = 0
KST1 180820Z 17008KT 14/08 A2988 RMK A01 T01430081  RH  067%=      5-min Rain = 0
KST1 180825Z 17007KT 14/08 A2987 RMK A01 T01420081  RH  068%=      5-min Rain = 0
KST1 180830Z 17008KT 14/08 A2987 RMK A01 T01410080  RH  068%=      5-min Rain = 0
KST1 180835Z 16008KT 14/08 A2987 RMK A01 T01410080  RH  068%=      5-min Rain = 0
KST1 180840Z 16008KT 14/08 A2987 RMK A01 T01410079  RH  067%=      5-min Rain = 0
KST1 180845Z 16008KT 14/08 A2986 RMK A01 T01390078  RH  068%=      5-min Rain = 0
KST1 180850Z 16008KT 14/08 A2986 RMK A01 T01380078  RH  068%=      5-min Rain = 0
KST1 180855Z 16008KT 14/08 A2986 RMK A01 T01390078  RH  068%=      5-min Rain = 0
KST1 180900Z 16009KT 14/08 A2986 RMK A01 T01380078  RH  068%=      5-min Rain = 0
KST1 180905Z 15009KT 14/08 A2985 RMK A01 T01380078  RH  068%=      5-min Rain = 0
KST1 180910Z 15009KT 14/08 A2985 RMK A01 T01380078  RH  068%=      5-min Rain = 0
KST1 180915Z 15010KT 14/08 A2984 RMK A01 T01370077  RH  068%=      5-min Rain = 0
KST1 180920Z 15009KT 14/08 A2984 RMK A01 T01370077  RH  068%=      5-min Rain = 0
KST1 180925Z 15009KT 14/08 A2984 RMK A01 T01350077  RH  069%=      5-min Rain = 0
KST1 180930Z 15008KT 14/08 A2984 RMK A01 T01350076  RH  069%=      5-min Rain = 0
KST1 180935Z 16008KT 13/08 A2984 RMK A01 T01340076  RH  069%=      5-min Rain = 0
KST1 180940Z 16009KT 14/08 A2984 RMK A01 T01350077  RH  069%=      5-min Rain = 0
KST1 180945Z 17010KT 14/08 A2984 RMK A01 T01370077  RH  068%=      5-min Rain = 0
KST1 180950Z 17009KT 14/08 A2984 RMK A01 T01370076  RH  068%=      5-min Rain = 0
KST1 180955Z 17009KT 14/08 A2984 RMK A01 T01380076  RH  067%=      5-min Rain = 0
KST1 181000Z 18009KT 14/08 A2984 RMK A01 T01370076  RH  067%=      5-min Rain = 0
KST1 181005Z 18009KT 14/08 A2984 RMK A01 T01360075  RH  068%=      5-min Rain = 0
KST1 181010Z 17008KT 14/08 A2984 RMK A01 T01350075  RH  068%=      5-min Rain = 0
KST1 181015Z 17008KT 13/07 A2984 RMK A01 T01340074  RH  068%=      5-min Rain = 0
KST1 181020Z 17008KT 13/07 A2984 RMK A01 T01320074  RH  069%=      5-min Rain = 0
KST1 181025Z 17008KT 13/07 A2984 RMK A01 T01320074  RH  069%=      5-min Rain = 0
KST1 181030Z 17009KT 13/07 A2984 RMK A01 T01330074  RH  068%=      5-min Rain = 0
KST1 181035Z 17010KT 14/07 A2984 RMK A01 T01350074  RH  068%=      5-min Rain = 0
KST1 181040Z 17010KT 14/07 A2984 RMK A01 T01350074  RH  067%=      5-min Rain = 0
KST1 181045Z 17010KT 14/07 A2984 RMK A01 T01350074  RH  067%=      5-min Rain = 0
KST1 181050Z 17009KT 14/07 A2985 RMK A01 T01350073  RH  067%=      5-min Rain = 0
KST1 181055Z 17010KT 14/07 A2985 RMK A01 T01360074  RH  067%=      5-min Rain = 0
KST1 181100Z 17010KT 14/07 A2985 RMK A01 T01360073  RH  067%=      5-min Rain = 0
KST1 181105Z 17009KT 14/07 A2985 RMK A01 T01360073  RH  067%=      5-min Rain = 0
KST1 181110Z 17009KT 14/07 A2985 RMK A01 T01350073  RH  067%=      5-min Rain = 0
KST1 181115Z 17009KT 13/07 A2985 RMK A01 T01340073  RH  067%=      5-min Rain = 0
KST1 181120Z 17009KT 13/07 A2984 RMK A01 T01340073  RH  067%=      5-min Rain = 0
KST1 181125Z 17009KT 13/07 A2984 RMK A01 T01320072  RH  068%=      5-min Rain = 0
KST1 181130Z 17009KT 13/07 A2984 RMK A01 T01310072  RH  068%=      5-min Rain = 0
KST1 181135Z 16009KT 13/07 A2984 RMK A01 T01300072  RH  069%=      5-min Rain = 0
KST1 181140Z 16009KT 13/07 A2984 RMK A01 T01300072  RH  069%=      5-min Rain = 0
KST1 181145Z 16009KT 13/07 A2984 RMK A01 T01290072  RH  069%=      5-min Rain = 0
KST1 181150Z 16009KT 13/07 A2984 RMK A01 T01280072  RH  070%=      5-min Rain = 0
KST1 181155Z 16009KT 13/07 A2984 RMK A01 T01280072  RH  070%=      5-min Rain = 0
KST1 181200Z 16009KT 13/07 A2984 RMK A01 T01280073  RH  070%=      5-min Rain = 0
KST1 181205Z 16009KT 13/07 A2984 RMK A01 T01270073  RH  070%=      5-min Rain = 0
KST1 181210Z 16009KT 13/07 A2984 RMK A01 T01260073  RH  071%=      5-min Rain = 0
KST1 181215Z 16009KT 13/07 A2984 RMK A01 T01250072  RH  071%=      5-min Rain = 0
KST1 181220Z 16008KT 12/07 A2984 RMK A01 T01240072  RH  072%=      5-min Rain = 0
KST1 181225Z 16009KT 12/07 A2983 RMK A01 T01240073  RH  072%=      5-min Rain = 0
KST1 181230Z 16009KT 12/07 A2983 RMK A01 T01240073  RH  072%=      5-min Rain = 0
KST1 181235Z 16009KT 12/07 A2983 RMK A01 T01240074  RH  072%=      5-min Rain = 0
KST1 181240Z 16010KT 13/08 A2983 RMK A01 T01260075  RH  072%=      5-min Rain = 0
KST1 181245Z 16009KT 13/08 A2983 RMK A01 T01270075  RH  072%=      5-min Rain = 0
KST1 181250Z 16010KT 13/08 A2983 RMK A01 T01270076  RH  072%=      5-min Rain = 0
KST1 181255Z 16009KT 13/08 A2983 RMK A01 T01260075  RH  072%=      5-min Rain = 0
KST1 181300Z 16010KT 13/08 A2983 RMK A01 T01250076  RH  073%=      5-min Rain = 0
KST1 181305Z 17010KT 13/08 A2983 RMK A01 T01260077  RH  073%=      5-min Rain = 0
KST1 181310Z 17010KT 13/08 A2983 RMK A01 T01280079  RH  073%=      5-min Rain = 0
KST1 181315Z 17011KT 13/08 A2983 RMK A01 T01300081  RH  073%=      5-min Rain = 0
KST1 181320Z 17012KT 13/08 A2983 RMK A01 T01320083  RH  073%=      5-min Rain = 0
KST1 181325Z 16012KT 14/09 A2983 RMK A01 T01350085  RH  073%=      5-min Rain = 0
KST1 181330Z 16012KT 14/09 A2983 RMK A01 T01360086  RH  073%=      5-min Rain = 0
KST1 181335Z 17012KT 14/09 A2983 RMK A01 T01390088  RH  073%=      5-min Rain = 0
KST1 181340Z 17013KT 14/09 A2983 RMK A01 T01420090  RH  072%=      5-min Rain = 0
KST1 181345Z 17014KT 14/09 A2983 RMK A01 T01440092  RH  072%=      5-min Rain = 0
KST1 181350Z 17014KT 15/09 A2983 RMK A01 T01470093  RH  071%=      5-min Rain = 0
KST1 181355Z 17015KT 15/09 A2983 RMK A01 T01490094  RH  071%=      5-min Rain = 0
KST1 181400Z 17015G20KT 15/09 A2983 RMK A01 T01510094  RH  070%=      5-min Rain = 0
KST1 181405Z 17015KT 15/10 A2983 RMK A01 T01520095  RH  070%=      5-min Rain = 0
KST1 181410Z 17015G20KT 16/10 A2983 RMK A01 T01550095  RH  069%=      5-min Rain = 0
KST1 181415Z 17015KT 16/10 A2984 RMK A01 T01570096  RH  068%=      5-min Rain = 0
KST1 181420Z 17014KT 16/10 A2984 RMK A01 T01580096  RH  068%=      5-min Rain = 0
KST1 181425Z 17015KT 16/10 A2984 RMK A01 T01590097  RH  067%=      5-min Rain = 0
KST1 181430Z 17015KT 16/10 A2984 RMK A01 T01600097  RH  067%=      5-min Rain = 0
KST1 181435Z 17014KT 16/10 A2984 RMK A01 T01610098  RH  067%=      5-min Rain = 0
KST1 181440Z 18014KT 16/10 A2984 RMK A01 T01640099  RH  066%=      5-min Rain = 0
KST1 181445Z 18013KT 17/10 A2984 RMK A01 T01670100  RH  066%=      5-min Rain = 0
KST1 181450Z 17014KT 17/10 A2984 RMK A01 T01700101  RH  065%=      5-min Rain = 0
KST1 181455Z 18013KT 17/10 A2984 RMK A01 T01710101  RH  065%=      5-min Rain = 0
KST1 181500Z 17012KT 18/10 A2984 RMK A01 T01770103  RH  063%=      5-min Rain = 0
KST1 181505Z 17013KT 18/10 A2984 RMK A01 T01770103  RH  063%=      5-min Rain = 0
KST1 181510Z 18013KT 18/10 A2984 RMK A01 T01800104  RH  062%=      5-min Rain = 0
KST1 181515Z 17012KT 19/11 A2984 RMK A01 T01850105  RH  061%=      5-min Rain = 0
KST1 181520Z 17012KT 19/11 A2984 RMK A01 T01880105  RH  060%=      5-min Rain = 0
KST1 181525Z 18012KT 19/11 A2984 RMK A01 T01900106  RH  059%=      5-min Rain = 0
KST1 181530Z 18011G16KT 19/11 A2984 RMK A01 T01940106  RH  058%=      5-min Rain = 0
KST1 181535Z 18014KT 20/11 A2984 RMK A01 T01960107  RH  057%=      5-min Rain = 0
KST1 181540Z 18012KT 20/11 A2984 RMK A01 T01990107  RH  056%=      5-min Rain = 0
KST1 181545Z 18014KT 20/11 A2983 RMK A01 T02010107  RH  055%=      5-min Rain = 0
KST1 181550Z 18013KT 20/11 A2983 RMK A01 T02040106  RH  054%=      5-min Rain = 0
KST1 181555Z 18011KT 21/11 A2983 RMK A01 T02070108  RH  054%=      5-min Rain = 0
KST1 181600Z 18014KT 21/11 A2983 RMK A01 T02140107  RH  052%=      5-min Rain = 0
KST1 181605Z 18012KT 21/11 A2983 RMK A01 T02140108  RH  052%=      5-min Rain = 0
KST1 181610Z 18013KT 22/11 A2982 RMK A01 T02160107  RH  051%=      5-min Rain = 0
KST1 181615Z 18015KT 22/11 A2982 RMK A01 T02200107  RH  049%=      5-min Rain = 0
KST1 181620Z 18013KT 22/11 A2982 RMK A01 T02210107  RH  049%=      5-min Rain = 0
KST1 181625Z 18014KT 23/11 A2982 RMK A01 T02250107  RH  048%=      5-min Rain = 0
KST1 181630Z 18013G18KT 23/11 A2982 RMK A01 T02270107  RH  048%=      5-min Rain = 0
KST1 181635Z 18014KT 23/11 A2981 RMK A01 T02330108  RH  046%=      5-min Rain = 0
KST1 181640Z 18011KT 24/11 A2981 RMK A01 T02380108  RH  045%=      5-min Rain = 0
KST1 181645Z 19012KT 24/11 A2981 RMK A01 T02360107  RH  045%=      5-min Rain = 0
KST1 181650Z 18013G19KT 24/11 A2981 RMK A01 T02370107  RH  045%=      5-min Rain = 0
KST1 181655Z 19013KT 24/11 A2981 RMK A01 T02390107  RH  044%=      5-min Rain = 0
KST1 181700Z 18013KT 24/11 A2981 RMK A01 T02420108  RH  044%=      5-min Rain = 0
KST1 181705Z 19013KT 24/11 A2981 RMK A01 T02430108  RH  043%=      5-min Rain = 0
KST1 181710Z 19013G18KT 24/11 A298 RMK A01 T02440108  RH  043%=      5-min Rain = 0
KST1 181715Z 19013KT 24/11 A298 RMK A01 T02420108  RH  044%=      5-min Rain = 0
KST1 181720Z 18014KT 24/11 A298 RMK A01 T02440108  RH  043%=      5-min Rain = 0
KST1 181725Z 18014KT 25/11 A298 RMK A01 T02470109  RH  043%=      5-min Rain = 0
KST1 181730Z 18013G19KT 25/11 A298 RMK A01 T02520110  RH  042%=      5-min Rain = 0
KST1 181735Z 18014KT 26/11 A298 RMK A01 T02570111  RH  041%=      5-min Rain = 0
KST1 181740Z 20013G18KT 26/11 A298 RMK A01 T02600111  RH  040%=      5-min Rain = 0
KST1 181745Z 19012G17KT 26/11 A2979 RMK A01 T02620112  RH  040%=      5-min Rain = 0
KST1 181750Z 19015KT 27/11 A2979 RMK A01 T02670112  RH  039%=      5-min Rain = 0
KST1 181755Z 20013G19KT 27/11 A2978 RMK A01 T02690112  RH  038%=      5-min Rain = 0
KST1 181800Z 20013G18KT 27/11 A2978 RMK A01 T02690112  RH  038%=      5-min Rain = 0
KST1 181805Z 19013G18KT 27/11 A2978 RMK A01 T02730112  RH  037%=      5-min Rain = 0
KST1 181810Z 20012G17KT 27/11 A2977 RMK A01 T02710112  RH  038%=      5-min Rain = 0
KST1 181815Z 20014KT 28/11 A2977 RMK A01 T02760113  RH  037%=      5-min Rain = 0
KST1 181820Z 19012G17KT 28/11 A2977 RMK A01 T02760113  RH  037%=      5-min Rain = 0
KST1 181825Z 19012G17KT 28/11 A2977 RMK A01 T02790112  RH  036%=      5-min Rain = 0
KST1 181830Z 19011KT 28/11 A2976 RMK A01 T02800112  RH  036%=      5-min Rain = 0
KST1 181835Z 20011G18KT 28/11 A2976 RMK A01 T02820112  RH  035%=      5-min Rain = 0
KST1 181840Z 19011KT 28/11 A2976 RMK A01 T02830112  RH  035%=      5-min Rain = 0
KST1 181845Z 22012KT 29/11 A2975 RMK A01 T02870112  RH  034%=      5-min Rain = 0
KST1 181850Z 22013G19KT 29/11 A2975 RMK A01 T02860111  RH  034%=      5-min Rain = 0
KST1 181855Z 22012G17KT 29/11 A2975 RMK A01 T02890111  RH  034%=      5-min Rain = 0
KST1 181900Z 22011G16KT 29/11 A2974 RMK A01 T02890112  RH  034%=      5-min Rain = 0
KST1 181905Z 21011G16KT 29/11 A2974 RMK A01 T02880111  RH  034%=      5-min Rain = 0
KST1 181910Z 23011G16KT 29/11 A2974 RMK A01 T02910111  RH  033%=      5-min Rain = 0
KST1 181915Z 21011G17KT 29/11 A2973 RMK A01 T02890111  RH  034%=      5-min Rain = 0
KST1 181920Z 23011KT 29/11 A2973 RMK A01 T02940111  RH  033%=      5-min Rain = 0
KST1 181925Z 23014G19KT 29/11 A2973 RMK A01 T02940109  RH  032%=      5-min Rain = 0
KST1 181930Z 23010KT 29/11 A2973 RMK A01 T02930108  RH  032%=      5-min Rain = 0
KST1 181935Z 24010KT 30/11 A2972 RMK A01 T02950109  RH  032%=      5-min Rain = 0
KST1 181940Z 24011KT 30/11 A2973 RMK A01 T02950109  RH  032%=      5-min Rain = 0
KST1 181945Z 21009G14KT 30/11 A2972 RMK A01 T02960109  RH  032%=      5-min Rain = 0
KST1 181950Z 23010G16KT 30/11 A2972 RMK A01 T02970109  RH  032%=      5-min Rain = 0
KST1 181955Z 21012G18KT 30/11 A2972 RMK A01 T03000108  RH  031%=      5-min Rain = 0
KST1 182000Z 25008KT 30/11 A2972 RMK A01 T02980108  RH  031%=      5-min Rain = 0
KST1 182005Z 22009KT 30/11 A2971 RMK A01 T03000109  RH  031%=      5-min Rain = 0
KST1 182010Z 22012G17KT 30/11 A2971 RMK A01 T03010108  RH  031%=      5-min Rain = 0
KST1 182015Z 22010G15KT 30/11 A2971 RMK A01 T03000107  RH  031%=      5-min Rain = 0
KST1 182020Z 22014KT 30/11 A2971 RMK A01 T03030107  RH  030%=      5-min Rain = 0
KST1 182025Z 22010G15KT 30/11 A297 RMK A01 T02990106  RH  031%=      5-min Rain = 0
KST1 182030Z 22013G21KT 31/11 A297 RMK A01 T03050106  RH  030%=      5-min Rain = 0
KST1 182035Z 24009G17KT 30/11 A297 RMK A01 T03010107  RH  031%=      5-min Rain = 0
KST1 182040Z 22013KT 31/11 A297 RMK A01 T03060106  RH  030%=      5-min Rain = 0
KST1 182045Z 20010G15KT 31/11 A297 RMK A01 T03050105  RH  030%=      5-min Rain = 0
KST1 182050Z 19009KT 31/11 A297 RMK A01 T03050105  RH  030%=      5-min Rain = 0
KST1 182055Z 21009G15KT 31/11 A2969 RMK A01 T03050105  RH  030%=      5-min Rain = 0
KST1 182100Z 23010G15KT 31/10 A2969 RMK A01 T03050098  RH  028%=      5-min Rain = 0
KST1 182105Z 22010G16KT 31/10 A2969 RMK A01 T03050096  RH  028%=      5-min Rain = 0
KST1 182110Z 24008G13KT 31/10 A2969 RMK A01 T03060098  RH  028%=      5-min Rain = 0
KST1 182115Z 26007KT 30/10 A2969 RMK A01 T03030099  RH  029%=      5-min Rain = 0
KST1 182120Z 25004KT 31/10 A2969 RMK A01 T03050101  RH  029%=      5-min Rain = 0
KST1 182125Z 23007G17KT 31/10 A2969 RMK A01 T03060099  RH  028%=      5-min Rain = 0
KST1 182130Z 24008KT 31/09 A2969 RMK A01 T03140094  RH  026%=      5-min Rain = 0
KST1 182135Z 23009G14KT 31/09 A2969 RMK A01 T03090093  RH  027%=      5-min Rain = 0
KST1 182140Z 23009G15KT 31/09 A2969 RMK A01 T03050091  RH  027%=      5-min Rain = 0
KST1 182145Z 23009KT 31/09 A2969 RMK A01 T03050092  RH  027%=      5-min Rain = 0
KST1 182150Z 21008KT 30/10 A2969 RMK A01 T03040096  RH  028%=      5-min Rain = 0
KST1 182155Z 23010G15KT 31/09 A2969 RMK A01 T03100094  RH  027%=      5-min Rain = 0
KST1 182200Z 22008KT 31/09 A2969 RMK A01 T03120093  RH  026%=      5-min Rain = 0
KST1 182205Z 22013G19KT 31/10 A2969 RMK A01 T03130095  RH  026%=      5-min Rain = 0
KST1 182210Z 23010G15KT 31/09 A2969 RMK A01 T03090094  RH  027%=      5-min Rain = 0
KST1 182215Z 22011KT 31/10 A2969 RMK A01 T03090096  RH  027%=      5-min Rain = 0
KST1 182220Z 20009G17KT 31/10 A2969 RMK A01 T03060096  RH  028%=      5-min Rain = 0
KST1 182225Z 20012G17KT 31/09 A2968 RMK A01 T03070094  RH  027%=      5-min Rain = 0
KST1 182230Z 20010G17KT 31/09 A2968 RMK A01 T03070094  RH  027%=      5-min Rain = 0
KST1 182235Z 20013G20KT 31/10 A2968 RMK A01 T03050096  RH  028%=      5-min Rain = 0
KST1 182240Z 20013G19KT 30/10 A2968 RMK A01 T03040095  RH  028%=      5-min Rain = 0
KST1 182245Z 19012KT 30/10 A2968 RMK A01 T03040100  RH  029%=      5-min Rain = 0
KST1 182250Z 20010G16KT 31/10 A2968 RMK A01 T03050101  RH  029%=      5-min Rain = 0
KST1 182255Z 19009KT 30/10 A2968 RMK A01 T03040101  RH  029%=      5-min Rain = 0
KST1 182300Z 19011KT 30/10 A2968 RMK A01 T03020103  RH  030%=      5-min Rain = 0
KST1 182305Z 19010KT 30/11 A2968 RMK A01 T02990105  RH  031%=      5-min Rain = 0
KST1 182310Z 18011KT 30/11 A2968 RMK A01 T02970106  RH  031%=      5-min Rain = 0
KST1 182315Z 19012KT 29/11 A2968 RMK A01 T02940107  RH  032%=      5-min Rain = 0
KST1 182320Z 19011KT 29/11 A2968 RMK A01 T02920108  RH  033%=      5-min Rain = 0
KST1 182325Z 18011G16KT 29/11 A2968 RMK A01 T02940109  RH  032%=      5-min Rain = 0
KST1 182330Z 19012KT 29/11 A2969 RMK A01 T02920110  RH  033%=      5-min Rain = 0
KST1 182335Z 19011KT 29/11 A2969 RMK A01 T02900110  RH  033%=      5-min Rain = 0
KST1 182340Z 19010G15KT 29/11 A2969 RMK A01 T02890110  RH  034%=      5-min Rain = 0
KST1 182345Z 19011G16KT 29/11 A2969 RMK A01 T02870111  RH  034%=      5-min Rain = 0
KST1 182350Z 19011G16KT 29/11 A2969 RMK A01 T02850111  RH  035%=      5-min Rain = 0
KST1 182355Z 19012G17KT 28/11 A2969 RMK A01 T02840112  RH  035%=      5-min Rain = 0
KST1 190000Z 19011KT 28/11 A2969 RMK A01 T02820111  RH  035%=      5-min Rain = 0
KST1 190005Z 19011KT 28/11 A2969 RMK A01 T02810111  RH  035%=      5-min Rain = 0
KST1 190010Z 19012KT 28/11 A2969 RMK A01 T02780111  RH  036%=      5-min Rain = 0
KST1 190015Z 19010KT 28/11 A2969 RMK A01 T02760111  RH  036%=      5-min Rain = 0
KST1 190020Z 19010KT 27/11 A297 RMK A01 T02730111  RH  037%=      5-min Rain = 0
KST1 190025Z 19010KT 27/11 A297 RMK A01 T02730111  RH  037%=      5-min Rain = 0
KST1 190030Z 19009KT 27/11 A297 RMK A01 T02710111  RH  038%=      5-min Rain = 0
KST1 190035Z 19009KT 27/11 A297 RMK A01 T02680111  RH  038%=      5-min Rain = 0
KST1 190040Z 19009KT 27/11 A297 RMK A01 T02660111  RH  038%=      5-min Rain = 0
KST1 190045Z 19009KT 27/11 A297 RMK A01 T02650111  RH  039%=      5-min Rain = 0
KST1 190050Z 18009KT 26/11 A297 RMK A01 T02620111  RH  039%=      5-min Rain = 0
KST1 190055Z 18009KT 26/11 A297 RMK A01 T02600111  RH  040%=      5-min Rain = 0
KST1 190100Z 18010KT 26/11 A2971 RMK A01 T02590110  RH  040%=      5-min Rain = 0
KST1 190105Z 18009KT 26/11 A2971 RMK A01 T02570110  RH  041%=      5-min Rain = 0
KST1 190110Z 18008KT 25/11 A2972 RMK A01 T02540110  RH  041%=      5-min Rain = 0
KST1 190115Z 18008KT 25/11 A2972 RMK A01 T02520110  RH  042%=      5-min Rain = 0
KST1 190120Z 18009KT 25/11 A2972 RMK A01 T02510110  RH  042%=      5-min Rain = 0
KST1 190125Z 18010KT 25/11 A2972 RMK A01 T02510110  RH  042%=      5-min Rain = 0
KST1 190130Z 18011KT 25/11 A2972 RMK A01 T02510109  RH  042%=      5-min Rain = 0
KST1 190135Z 19009KT 25/11 A2973 RMK A01 T02510109  RH  042%=      5-min Rain = 0
KST1 190140Z 19009KT 25/11 A2973 RMK A01 T02500108  RH  042%=      5-min Rain = 0
KST1 190145Z 19009KT 25/11 A2973 RMK A01 T02500108  RH  042%=      5-min Rain = 0
KST1 190150Z 19010KT 25/11 A2974 RMK A01 T02510108  RH  041%=      5-min Rain = 0
KST1 190155Z 19010KT 25/11 A2974 RMK A01 T02510108  RH  041%=      5-min Rain = 0
KST1 190200Z 20009KT 25/11 A2975 RMK A01 T02500108  RH  042%=      5-min Rain = 0
KST1 190205Z 23007KT 25/11 A2976 RMK A01 T02480109  RH  042%=      5-min Rain = 0
KST1 190210Z 29006KT 25/11 A2977 RMK A01 T02450113  RH  044%=      5-min Rain = 0
KST1 190215Z 29014G25KT 25/12 A2978 RMK A01 T02480115  RH  044%=      5-min Rain = 0
KST1 190220Z 30013G19KT 24/13 A2978 RMK A01 T02390132  RH  052%=      5-min Rain = 0
KST1 190225Z 22009KT 24/13 A2976 RMK A01 T02400129  RH  051%=      5-min Rain = 0
KST1 190230Z 20009KT 24/13 A2976 RMK A01 T02380126  RH  051%=      5-min Rain = 0
KST1 190235Z 19008KT 24/13 A2975 RMK A01 T02360130  RH  052%=      5-min Rain = 0
KST1 190240Z 19008KT 23/13 A2976 RMK A01 T02330132  RH  054%=      5-min Rain = 0
KST1 190245Z 21005KT 23/13 A2976 RMK A01 T02290134  RH  056%=      5-min Rain = 0
KST1 190250Z 21006KT 22/13 A2976 RMK A01 T02230133  RH  058%=      5-min Rain = 0
KST1 190255Z 20005KT 22/13 A2976 RMK A01 T02220131  RH  058%=      5-min Rain = 0
KST1 190300Z 21005KT 22/13 A2976 RMK A01 T02190133  RH  059%=      5-min Rain = 0
KST1 190305Z 20006KT 22/13 A2977 RMK A01 T02190129  RH  057%=      5-min Rain = 0
KST1 190310Z 20006KT 22/13 A2977 RMK A01 T02210127  RH  056%=      5-min Rain = 0
KST1 190315Z 20007KT 22/13 A2977 RMK A01 T02220126  RH  056%=      5-min Rain = 0
KST1 190320Z 19008KT 22/12 A2977 RMK A01 T02240124  RH  054%=      5-min Rain = 0
KST1 190325Z 19008KT 22/12 A2977 RMK A01 T02210123  RH  055%=      5-min Rain = 0
KST1 190330Z 20008KT 22/12 A2977 RMK A01 T02210122  RH  054%=      5-min Rain = 0
KST1 190335Z 19008KT 22/12 A2977 RMK A01 T02210122  RH  054%=      5-min Rain = 0
KST1 190340Z 18007KT 22/12 A2978 RMK A01 T02200122  RH  054%=      5-min Rain = 0
KST1 190345Z 19009KT 22/12 A2978 RMK A01 T02170122  RH  056%=      5-min Rain = 0
KST1 190350Z 18011G19KT 22/12 A2978 RMK A01 T02190122  RH  055%=      5-min Rain = 0
KST1 190355Z 19010KT 22/12 A2978 RMK A01 T02240122  RH  053%=      5-min Rain = 0
KST1 190400Z 20009G14KT 22/12 A2978 RMK A01 T02230123  RH  054%=      5-min Rain = 0
KST1 190405Z 19007G12KT 23/13 A2978 RMK A01 T02270125  RH  054%=      5-min Rain = 0
KST1 190410Z 19008KT 22/13 A2978 RMK A01 T02240126  RH  055%=      5-min Rain = 0
KST1 190415Z 20009KT 23/13 A2978 RMK A01 T02250125  RH  054%=      5-min Rain = 0
KST1 190420Z 21008KT 22/12 A2979 RMK A01 T02220124  RH  055%=      5-min Rain = 0
KST1 190425Z 22008KT 22/12 A2979 RMK A01 T02200124  RH  055%=      5-min Rain = 0
KST1 190430Z 24005KT 22/13 A2979 RMK A01 T02170125  RH  057%=      5-min Rain = 0
KST1 190435Z 22006KT 22/13 A2979 RMK A01 T02200127  RH  056%=      5-min Rain = 0
KST1 190440Z 22005KT 22/13 A2979 RMK A01 T02170126  RH  057%=      5-min Rain = 0
KST1 190445Z 22005KT 22/13 A2979 RMK A01 T02180126  RH  057%=      5-min Rain = 0
KST1 190450Z 21005KT 21/13 A2979 RMK A01 T02130125  RH  059%=      5-min Rain = 0
KST1 190455Z 22005KT 21/13 A2979 RMK A01 T02050125  RH  061%=      5-min Rain = 0

Page generated in 0.0217 seconds.